Time;durP1;ratioP1;P1;durP2;ratioP2;P2;SDS_P1;SDS_P2;PMS_P1;PMS_P2;Temp;Humidity;BMP_temperature;BMP_pressure;BME280_temperature;BME280_humidity;BME280_pressure;Samples;Min_cycle;Max_cycle;Signal;HPM_P1;HPM_P2
2021/01/29 00:00:42;;;;;;;60.53;18.48;;;13.00;63.00;;;;;;5071292;28;20485;-74
2021/01/29 00:03:17;;;;;;;80.07;21.20;;;13.00;63.10;;;;;;5071295;28;20505;-72
2021/01/29 00:05:54;;;;;;;55.70;20.13;;;13.00;63.10;;;;;;5080262;28;20037;-73
2021/01/29 00:08:20;;;;;;;;;;;13.00;63.60;;;;;;5092110;28;20024;-72
2021/01/29 00:10:47;;;;;;;44.40;18.85;;;;;;;;;;5091471;28;19912;-74
2021/01/29 00:13:14;;;;;;;55.20;21.15;;;;;;;;;;5090857;28;20028;-74
2021/01/29 00:15:42;;;;;;;54.83;21.02;;;13.10;63.00;;;;;;5091553;28;20466;-73
2021/01/29 00:18:12;;;;;;;67.38;21.90;;;;;;;;;;5091607;28;20028;-74
2021/01/29 00:20:39;;;;;;;59.38;21.20;;;;;;;;;;5091727;28;20035;-72
2021/01/29 00:23:05;;;;;;;77.30;21.95;;;;;;;;;;5091606;28;20032;-72
2021/01/29 00:25:34;;;;;;;68.47;21.88;;;12.80;64.70;;;;;;5076899;28;20086;-72
2021/01/29 00:28:01;;;;;;;57.63;22.67;;;;;;;;;;5070826;28;20062;-72
2021/01/29 00:30:29;;;;;;;60.30;21.75;;;12.90;64.40;;;;;;5071115;28;20024;-72
2021/01/29 00:32:56;;;;;;;69.28;20.90;;;;;;;;;;5070965;28;20398;-72
2021/01/29 00:35:24;;;;;;;70.93;21.27;;;12.40;65.60;;;;;;5071127;28;20049;-72
2021/01/29 00:37:50;;;;;;;61.42;21.15;;;;;;;;;;5074870;28;20028;-74
2021/01/29 00:40:17;;;;;;;64.53;20.20;;;12.50;66.10;;;;;;5091318;28;20032;-74
2021/01/29 00:42:43;;;;;;;71.85;20.83;;;;;;;;;;5094630;28;20031;-73
2021/01/29 00:45:11;;;;;;;66.93;21.25;;;12.60;66.30;;;;;;5095041;28;20043;-72
2021/01/29 00:47:38;;;;;;;65.60;22.23;;;;;;;;;;5095149;28;20050;-74
2021/01/29 00:50:05;;;;;;;61.22;20.70;;;13.00;65.60;;;;;;5095204;28;20020;-72
2021/01/29 00:52:32;;;;;;;91.78;22.05;;;;;;;;;;5093505;28;20051;-73
2021/01/29 00:54:58;;;;;;;64.78;22.20;;;;;;;;;;5073608;28;20053;-72
2021/01/29 00:57:25;;;;;;;75.45;22.35;;;;;;;;;;5073028;28;20025;-71
2021/01/29 01:00:14;;;;;;;89.47;22.95;;;13.00;65.90;;;;;;5074766;28;20024;-72
2021/01/29 01:02:47;;;;;;;83.13;22.17;;;;;;;;;;5079287;28;20123;-73
2021/01/29 01:05:15;;;;;;;58.17;20.15;;;13.20;66.20;;;;;;5094769;28;20424;-72
2021/01/29 01:07:42;;;;;;;75.40;22.30;;;;;;;;;;5094332;28;20512;-73
2021/01/29 01:10:40;;;;;;;78.25;22.45;;;;;;;;;;5094192;28;20032;-73
2021/01/29 01:13:24;;;;;;;71.43;21.35;;;;;;;;;;5093417;28;20043;-74
2021/01/29 01:16:14;;;;;;;49.15;19.60;;;;;;;;;;5051784;28;20406;-76
2021/01/29 01:18:40;;;;;;;74.07;21.40;;;;;;;;;;5035388;28;20195;-73
2021/01/29 01:21:22;;;;;;;83.38;21.92;;;;;;;;;;5035148;28;20049;-73
2021/01/29 01:24:10;;;;;;;75.43;22.13;;;;;;;;;;5015660;28;20059;-74
2021/01/29 01:26:36;;;;;;;66.40;20.67;;;;;;;;;;5031910;28;20041;-75
2021/01/29 01:29:21;;;;;;;59.15;17.55;;;;;;;;;;5042728;28;20037;-73
2021/01/29 01:31:48;;;;;;;63.75;20.08;;;;;;;;;;5048944;28;20072;-73
2021/01/29 01:34:34;;;;;;;68.50;18.88;;;;;;;;;;4991991;28;20085;-75
2021/01/29 01:37:10;;;;;;;61.60;16.52;;;;;;;;;;4976091;28;20436;-74
2021/01/29 01:39:59;;;;;;;61.92;17.60;;;;;;;;;;4986332;28;20042;-74
2021/01/29 01:42:27;;;;;;;56.97;17.65;;;;;;;;;;4976413;28;20044;-73
2021/01/29 01:44:53;;;;;;;53.35;17.40;;;;;;;;;;4994799;28;20046;-73
2021/01/29 01:47:37;;;;;;;41.50;17.10;;;14.20;66.50;;;;;;4976178;28;20046;-74
2021/01/29 01:50:23;;;;;;;60.00;18.15;;;;;;;;;;4991702;28;20035;-73
2021/01/29 01:52:50;;;;;;;58.33;18.25;;;;;;;;;;4998191;28;20042;-73
2021/01/29 01:55:38;;;;;;;53.10;17.50;;;14.30;66.10;;;;;;4995070;28;20092;-74
2021/01/29 01:58:25;;;;;;;49.28;17.63;;;;;;;;;;5010963;28;20050;-74
2021/01/29 02:01:23;;;;;;;50.92;17.38;;;14.30;66.30;;;;;;4953878;28;20122;-75
2021/01/29 02:04:10;;;;;;;51.35;17.33;;;;;;;;;;4953815;28;20047;-75
2021/01/29 02:07:08;;;;;;;58.40;17.38;;;;;;;;;;4953845;28;20031;-73
2021/01/29 02:09:58;;;;;;;58.10;18.27;;;14.50;65.50;;;;;;4953877;28;20154;-73
2021/01/29 02:12:25;;;;;;;52.22;16.13;;;;;;;;;;5016832;28;20037;-73
2021/01/29 02:15:13;;;;;;;54.90;17.80;;;14.50;65.40;;;;;;5030895;28;20049;-73
2021/01/29 02:18:20;;;;;;;58.60;17.45;;;14.50;65.30;;;;;;5030997;28;20562;-73
2021/01/29 02:21:13;;;;;;;44.92;14.75;;;14.60;65.30;;;;;;4981281;28;20042;-74
2021/01/29 02:24:38;;;;;;;48.35;15.15;;;14.50;65.30;;;;;;4984243;28;20088;-73
2021/01/29 02:27:43;;;;;;;46.63;15.48;;;14.50;65.30;;;;;;4962631;28;20058;-76
2021/01/29 02:30:33;;;;;;;51.88;14.57;;;14.50;65.10;;;;;;4975197;28;20047;-73
2021/01/29 02:33:32;;;;;;;44.45;15.18;;;14.50;65.50;;;;;;4971222;28;20493;-73
2021/01/29 02:36:35;;;;;;;53.97;15.18;;;14.50;65.30;;;;;;4960130;28;20521;-76
2021/01/29 02:39:02;;;;;;;46.78;13.85;;;;;;;;;;5013884;28;20519;-75
2021/01/29 02:41:33;;;;;;;37.97;14.50;;;14.60;65.30;;;;;;5030391;28;20045;-75
2021/01/29 02:44:31;;;;;;;40.90;14.20;;;14.50;65.20;;;;;;5013983;28;20044;-75
2021/01/29 02:47:25;;;;;;;34.17;13.02;;;14.40;65.50;;;;;;5030419;28;20042;-75
2021/01/29 02:50:41;;;;;;;28.50;12.85;;;14.40;65.60;;;;;;5027749;28;20491;-76
2021/01/29 02:53:26;;;;;;;35.90;13.98;;;14.40;65.60;;;;;;4970804;28;20363;-76
2021/01/29 02:56:30;;;;;;;40.28;14.45;;;14.40;65.60;;;;;;4985619;28;20038;-76
2021/01/29 02:59:54;;;;;;;36.40;13.10;;;14.50;65.40;;;;;;4984606;28;20046;-76
2021/01/29 03:02:53;;;;;;;34.00;12.57;;;14.50;65.30;;;;;;4971383;28;20081;-73
2021/01/29 03:05:54;;;;;;;31.80;11.90;;;14.40;65.60;;;;;;4962155;28;20038;-75
2021/01/29 03:08:26;;;;;;;26.50;11.77;;;14.30;66.30;;;;;;4990489;28;20034;-76
2021/01/29 03:11:30;;;;;;;27.95;11.30;;;14.30;66.30;;;;;;4990651;28;20034;-73
2021/01/29 03:14:28;;;;;;;31.77;10.98;;;14.40;66.30;;;;;;4990479;28;20149;-73
2021/01/29 03:17:37;;;;;;;24.75;10.57;;;14.40;66.30;;;;;;4990066;28;20034;-73
2021/01/29 03:20:42;;;;;;;24.75;9.93;;;14.30;66.60;;;;;;5008752;28;20455;-73
2021/01/29 03:23:32;;;;;;;16.23;8.85;;;14.20;67.00;;;;;;4994962;28;20038;-74
2021/01/29 03:26:25;;;;;;;16.27;8.65;;;14.20;67.30;;;;;;5002647;28;20048;-73
2021/01/29 03:29:15;;;;;;;20.48;8.10;;;14.00;67.90;;;;;;5071848;28;20051;-74
2021/01/29 03:32:03;;;;;;;15.13;7.82;;;14.10;68.10;;;;;;5074753;28;20032;-74
2021/01/29 03:34:59;;;;;;;14.43;7.80;;;14.00;68.30;;;;;;5028595;28;20401;-74
2021/01/29 03:38:06;;;;;;;15.65;7.90;;;13.90;68.80;;;;;;5016580;28;20160;-74
2021/01/29 03:41:05;;;;;;;17.60;6.95;;;13.60;69.90;;;;;;5029225;28;20041;-74
2021/01/29 03:44:10;;;;;;;14.95;8.35;;;13.80;69.20;;;;;;5029378;28;20037;-74
2021/01/29 03:46:58;;;;;;;;;;;13.80;69.70;;;;;;5029456;28;20124;-73
2021/01/29 03:49:46;;;;;;;14.63;8.18;;;;;;;;;;5028811;28;19909;-74
2021/01/29 03:52:57;;;;;;;15.90;7.40;;;14.20;68.10;;;;;;5029325;28;20038;-73
2021/01/29 03:55:46;;;;;;;11.63;6.60;;;14.10;68.40;;;;;;5029417;28;20068;-74
2021/01/29 03:58:31;;;;;;;18.88;7.63;;;;;;;;;;5029147;28;20053;-74
2021/01/29 04:01:16;;;;;;;15.38;7.80;;;;;;;;;;5029412;28;20033;-74
2021/01/29 04:04:22;;;;;;;11.98;6.85;;;14.30;68.00;;;;;;5028964;28;20108;-74
2021/01/29 04:07:09;;;;;;;17.30;8.02;;;14.20;68.50;;;;;;5016321;28;20060;-74
2021/01/29 04:10:13;;;;;;;12.98;7.20;;;14.20;68.40;;;;;;4970789;28;20087;-74
2021/01/29 04:13:11;;;;;;;13.48;6.85;;;14.40;68.00;;;;;;4987149;28;20038;-72
2021/01/29 04:15:51;;;;;;;14.43;6.75;;;14.50;67.40;;;;;;4984176;28;20035;-73
2021/01/29 04:18:18;;;;;;;17.42;7.57;;;;;;;;;;4975367;28;20034;-76
2021/01/29 04:21:06;;;;;;;17.35;7.10;;;14.60;66.90;;;;;;4980753;28;20445;-74
2021/01/29 04:23:41;;;;;;;12.90;7.00;;;14.80;66.40;;;;;;4995304;28;20158;-73
2021/01/29 04:26:13;;;;;;;17.17;7.68;;;14.70;66.50;;;;;;5013322;28;20460;-75
2021/01/29 04:28:47;;;;;;;16.08;6.75;;;14.60;66.90;;;;;;5013012;28;20416;-75
2021/01/29 04:31:15;;;;;;;15.68;7.32;;;14.70;66.40;;;;;;5013235;28;20499;-75
2021/01/29 04:33:52;;;;;;;17.23;7.32;;;14.70;66.30;;;;;;4995869;28;20493;-75
2021/01/29 04:36:22;;;;;;;13.13;6.85;;;14.80;66.20;;;;;;5004341;28;20050;-76
2021/01/29 04:38:54;;;;;;;19.70;7.00;;;14.80;66.20;;;;;;4993380;28;20050;-75
2021/01/29 04:41:21;;;;;;;16.08;7.25;;;;;;;;;;5001667;28;20214;-77
2021/01/29 04:44:18;;;;;;;17.27;7.63;;;14.90;65.70;;;;;;5003155;28;20023;-73
2021/01/29 04:46:56;;;;;;;16.50;7.80;;;15.00;65.50;;;;;;5016419;28;20407;-76
2021/01/29 04:49:33;;;;;;;19.98;7.25;;;15.00;65.20;;;;;;5072855;28;20032;-76
2021/01/29 04:52:38;;;;;;;13.75;6.22;;;15.10;65.20;;;;;;5074721;28;20036;-75
2021/01/29 04:55:04;;;;;;;14.10;7.57;;;;;;;;;;5060627;28;20494;-76
2021/01/29 04:58:05;;;;;;;12.02;7.05;;;15.00;65.10;;;;;;5074975;28;20528;-74
2021/01/29 05:01:23;;;;;;;11.20;6.07;;;15.00;65.30;;;;;;5074308;28;20105;-76
2021/01/29 05:04:34;;;;;;;13.77;6.63;;;14.90;65.80;;;;;;5074333;28;20040;-76
2021/01/29 05:07:19;;;;;;;11.75;6.53;;;;;;;;;;5074265;28;20478;-75
2021/01/29 05:10:22;;;;;;;16.15;6.50;;;14.70;66.40;;;;;;5012181;28;20042;-75
2021/01/29 05:13:16;;;;;;;14.40;6.10;;;14.70;66.60;;;;;;4995092;28;20158;-75
2021/01/29 05:15:51;;;;;;;11.75;6.53;;;14.60;66.70;;;;;;4999520;28;20073;-75
2021/01/29 05:18:35;;;;;;;12.93;6.30;;;14.40;67.70;;;;;;5011803;28;20792;-74
2021/01/29 05:21:31;;;;;;;10.57;5.30;;;14.30;67.70;;;;;;5012247;28;20058;-75
2021/01/29 05:24:12;;;;;;;;;;;14.30;68.40;;;;;;5012412;28;20030;-73
2021/01/29 05:27:06;;;;;;;7.93;4.20;;;13.80;69.40;;;;;;5012081;28;19920;-76
2021/01/29 05:29:46;;;;;;;6.32;4.28;;;13.80;70.00;;;;;;5012176;28;20129;-75
2021/01/29 05:32:36;;;;;;;6.57;3.83;;;13.80;69.80;;;;;;5010266;28;20472;-75
2021/01/29 05:35:24;;;;;;;7.80;4.65;;;13.60;70.00;;;;;;5011811;28;20065;-71
2021/01/29 05:38:35;;;;;;;8.02;4.35;;;13.60;69.70;;;;;;5032800;28;20028;-73
2021/01/29 05:41:21;;;;;;;4.68;3.45;;;13.40;69.60;;;;;;5001042;28;20558;-73
2021/01/29 05:44:02;;;;;;;5.45;3.53;;;13.20;70.20;;;;;;5031125;28;20045;-74
2021/01/29 05:46:31;;;;;;;7.60;4.35;;;16.50;72.50;;;;;;5044311;28;20509;-74
2021/01/29 05:49:19;;;;;;;6.65;4.07;;;12.90;70.50;;;;;;5093485;28;20161;-75
2021/01/29 05:51:45;;;;;;;6.32;4.03;;;;;;;;;;5074866;28;20032;-74
2021/01/29 05:54:21;;;;;;;7.85;4.25;;;;;;;;;;5091092;28;20042;-74
2021/01/29 05:57:01;;;;;;;7.72;4.45;;;13.20;69.50;;;;;;5093156;28;20398;-74
2021/01/29 05:59:53;;;;;;;9.88;4.20;;;13.30;69.50;;;;;;5093312;28;20078;-74
2021/01/29 06:02:46;;;;;;;7.18;4.00;;;13.20;69.60;;;;;;5082393;28;20381;-73
2021/01/29 06:05:33;;;;;;;6.72;3.83;;;13.20;69.10;;;;;;5093304;28;20036;-74
2021/01/29 06:08:39;;;;;;;6.43;3.65;;;13.30;69.10;;;;;;5093285;28;20028;-76
2021/01/29 06:11:36;;;;;;;5.60;3.60;;;13.30;69.00;;;;;;5095060;28;20028;-74
2021/01/29 06:14:40;;;;;;;6.57;3.40;;;13.30;68.70;;;;;;5091533;28;20083;-74
2021/01/29 06:17:32;;;;;;;5.88;3.50;;;13.40;68.30;;;;;;5092927;28;20035;-74
2021/01/29 06:19:58;;;;;;;6.10;3.20;;;;;;;;;;5093034;28;20032;-73
2021/01/29 06:22:39;;;;;;;5.30;3.90;;;13.20;68.70;;;;;;5092955;28;20024;-71
2021/01/29 06:25:27;;;;;;;7.28;3.58;;;13.20;68.80;;;;;;5092442;28;20039;-72
2021/01/29 06:28:26;;;;;;;6.85;3.80;;;13.20;68.90;;;;;;5092574;28;20025;-75
2021/01/29 06:30:54;;;;;;;9.68;4.53;;;13.40;68.50;;;;;;5078445;28;20579;-73
2021/01/29 06:33:21;;;;;;;10.60;4.72;;;;;;;;;;5094225;28;20052;-75
2021/01/29 06:35:58;;;;;;;10.70;4.47;;;13.40;68.30;;;;;;5084901;28;20028;-74
2021/01/29 06:38:25;;;;;;;13.15;4.63;;;;;;;;;;5072286;28;20115;-74
2021/01/29 06:41:12;;;;;;;11.20;4.60;;;13.40;68.20;;;;;;5072640;28;20090;-74
2021/01/29 06:43:38;;;;;;;14.30;4.97;;;;;;;;;;5075147;28;20051;-73
2021/01/29 06:46:05;;;;;;;8.52;4.07;;;;;;;;;;5053558;28;20071;-74
2021/01/29 06:48:31;;;;;;;10.25;4.00;;;;;;;;;;5072158;28;20028;-73
2021/01/29 06:50:57;;;;;;;7.60;4.30;;;;;;;;;;5074024;28;20134;-74
2021/01/29 06:53:46;;;;;;;13.25;4.15;;;13.50;67.80;;;;;;5071570;28;20062;-74
2021/01/29 06:56:33;;;;;;;10.23;3.78;;;13.50;68.10;;;;;;5071513;28;20094;-75
2021/01/29 06:59:30;;;;;;;16.17;4.88;;;13.50;68.30;;;;;;4369776;28;10000710;-75
2021/01/29 07:02:23;;;;;;;11.43;3.75;;;13.40;68.70;;;;;;5051486;28;20016;-75
2021/01/29 07:05:01;;;;;;;11.55;3.95;;;13.50;68.70;;;;;;5069157;28;20036;-75
2021/01/29 07:07:48;;;;;;;5.97;3.53;;;13.40;69.20;;;;;;5069361;28;20048;-73
2021/01/29 07:10:45;;;;;;;11.57;3.97;;;13.50;68.90;;;;;;5076127;28;20035;-74
2021/01/29 07:13:29;;;;;;;13.98;3.47;;;13.50;68.80;;;;;;5068681;28;20090;-73
2021/01/29 07:16:04;;;;;;;12.20;3.50;;;13.60;68.70;;;;;;5058967;28;20032;-71
2021/01/29 07:18:54;;;;;;;12.02;4.10;;;13.60;68.70;;;;;;5069404;28;20033;-73
2021/01/29 07:21:50;;;;;;;12.68;4.20;;;13.60;68.50;;;;;;5069484;28;20028;-72
2021/01/29 07:24:47;;;;;;;13.45;3.67;;;13.30;69.60;;;;;;5069380;28;20059;-74
2021/01/29 07:27:13;;;;;;;10.57;3.42;;;;;;;;;;5068792;28;20379;-73
2021/01/29 07:30:07;;;;;;;16.98;3.50;;;13.10;70.00;;;;;;5069373;28;20028;-74
2021/01/29 07:32:56;;;;;;;15.07;4.25;;;12.80;71.30;;;;;;5066905;28;20020;-73
2021/01/29 07:35:44;;;;;;;14.52;4.35;;;12.60;72.10;;;;;;5070527;28;20063;-74
2021/01/29 07:38:48;;;;;;;19.60;4.07;;;12.60;71.60;;;;;;5089193;28;20051;-74
2021/01/29 07:41:42;;;;;;;28.40;5.10;;;12.90;71.00;;;;;;5070108;28;20028;-72
2021/01/29 07:44:41;;;;;;;23.17;7.03;;;12.90;70.50;;;;;;5089207;28;20028;-72
2021/01/29 07:47:21;;;;;;;23.85;4.35;;;12.60;70.90;;;;;;5088713;28;20446;-72
2021/01/29 07:50:02;;;;;;;24.52;4.38;;;12.60;71.50;;;;;;5089218;28;20103;-73
2021/01/29 07:52:50;;;;;;;19.60;4.45;;;12.60;71.40;;;;;;5089233;28;20024;-73
2021/01/29 07:56:15;;;;;;;23.33;4.93;;;12.70;70.50;;;;;;5075394;28;20040;-73
2021/01/29 07:58:41;;;;;;;23.03;5.43;;;;;;;;;;4887133;29;20096;-73
2021/01/29 08:01:36;;;;;;;28.20;5.13;;;12.60;71.50;;;;;;4929323;29;20036;-74
2021/01/29 08:04:28;;;;;;;36.33;6.60;;;12.50;71.00;;;;;;4948074;28;20502;-73
2021/01/29 08:07:17;;;;;;;23.63;5.07;;;12.50;71.10;;;;;;4951250;28;20522;-74
2021/01/29 08:09:57;;;;;;;28.75;6.40;;;12.40;71.10;;;;;;4946065;28;20051;-69
2021/01/29 08:12:38;;;;;;;31.92;6.28;;;12.50;70.60;;;;;;4948239;28;20449;-71
2021/01/29 08:15:28;;;;;;;26.98;4.82;;;12.50;70.70;;;;;;4948004;29;20052;-72
2021/01/29 08:18:24;;;;;;;33.72;6.35;;;12.30;71.40;;;;;;4948417;29;20031;-72
2021/01/29 08:21:28;;;;;;;28.58;6.32;;;12.50;71.20;;;;;;4948288;28;20031;-73
2021/01/29 08:24:06;;;;;;;29.00;5.95;;;12.40;70.50;;;;;;4947394;28;20047;-73
2021/01/29 08:26:35;;;;;;;31.08;5.90;;;12.50;70.50;;;;;;4948108;28;20588;-70
2021/01/29 08:29:30;;;;;;;29.45;6.88;;;12.60;69.80;;;;;;4947962;28;20048;-75
2021/01/29 08:32:42;;;;;;;38.67;5.50;;;12.80;68.50;;;;;;4951301;28;20042;-74
2021/01/29 08:35:29;;;;;;;21.33;4.47;;;12.80;68.10;;;;;;4873305;29;20063;-72
2021/01/29 08:38:19;;;;;;;30.83;5.47;;;12.90;67.70;;;;;;4901273;29;20060;-75
2021/01/29 08:41:02;;;;;;;32.40;6.00;;;12.70;67.50;;;;;;4900085;29;20042;-74
2021/01/29 08:43:57;;;;;;;33.97;5.68;;;12.60;68.30;;;;;;4909711;29;20759;-73
2021/01/29 08:46:35;;;;;;;22.23;4.70;;;12.50;68.50;;;;;;4897838;29;20055;-72
2021/01/29 08:49:29;;;;;;;33.55;5.68;;;12.60;68.40;;;;;;4909950;29;20177;-74
2021/01/29 08:52:01;;;;;;;26.10;5.15;;;12.80;67.50;;;;;;4894133;29;20050;-74
2021/01/29 08:54:40;;;;;;;30.67;5.25;;;12.90;66.50;;;;;;4891599;29;20051;-73
2021/01/29 08:57:26;;;;;;;34.65;5.40;;;12.80;66.30;;;;;;4910337;29;20093;-74
2021/01/29 08:59:58;;;;;;;19.13;4.00;;;12.80;66.30;;;;;;4911660;29;20044;-74
2021/01/29 09:02:42;;;;;;;41.63;5.57;;;12.70;66.90;;;;;;4912783;29;20059;-73
2021/01/29 09:05:12;;;;;;;34.53;6.20;;;12.80;66.50;;;;;;4891774;29;20045;-73
2021/01/29 09:07:39;;;;;;;24.10;5.05;;;13.00;65.90;;;;;;4904297;29;20101;-74
2021/01/29 09:10:17;;;;;;;24.23;5.53;;;13.00;65.20;;;;;;4933254;29;20047;-74
2021/01/29 09:12:45;;;;;;;25.60;6.10;;;12.90;66.20;;;;;;5055382;28;20120;-75
2021/01/29 09:15:18;;;;;;;35.90;5.35;;;12.60;66.70;;;;;;5091419;28;20367;-74
2021/01/29 09:17:49;;;;;;;30.20;5.97;;;12.50;67.20;;;;;;5091957;28;20036;-75
2021/01/29 09:20:25;;;;;;;27.63;5.13;;;12.40;67.50;;;;;;5091547;28;20125;-73
2021/01/29 09:22:56;;;;;;;38.90;4.72;;;12.50;67.40;;;;;;5084537;28;20020;-73
2021/01/29 09:25:51;;;;;;;40.63;6.65;;;12.70;66.90;;;;;;5090743;28;20389;-70
2021/01/29 09:28:34;;;;;;;40.13;6.38;;;12.70;67.00;;;;;;5091305;28;20059;-71
2021/01/29 09:31:20;;;;;;;32.30;6.28;;;13.00;66.00;;;;;;5091717;28;20020;-70
2021/01/29 09:33:57;;;;;;;36.05;8.07;;;13.20;65.50;;;;;;5069697;28;20025;-73
2021/01/29 09:36:38;;;;;;;35.67;6.30;;;13.00;65.20;;;;;;5080911;28;20028;-72
2021/01/29 09:39:26;;;;;;;28.63;5.72;;;13.00;66.00;;;;;;5072565;28;20036;-71
2021/01/29 09:42:06;;;;;;;32.50;5.45;;;12.80;66.30;;;;;;5091270;28;20032;-73
2021/01/29 09:44:58;;;;;;;22.92;4.82;;;12.90;66.50;;;;;;5091036;28;20035;-71
2021/01/29 09:47:25;;;;;;;27.17;5.53;;;13.00;66.00;;;;;;5090452;28;20063;-70
2021/01/29 09:50:01;;;;;;;37.35;7.50;;;12.90;65.70;;;;;;5091289;28;20501;-70
2021/01/29 09:53:05;;;;;;;30.95;5.97;;;12.80;66.50;;;;;;5090417;28;20047;-70
2021/01/29 09:55:55;;;;;;;26.58;5.65;;;13.00;66.10;;;;;;5072138;28;20078;-71
2021/01/29 09:58:40;;;;;;;23.25;4.65;;;13.00;66.00;;;;;;5091143;28;20402;-70
2021/01/29 10:01:16;;;;;;;29.25;5.63;;;13.20;66.00;;;;;;5090103;28;20028;-71
2021/01/29 10:03:57;;;;;;;30.08;4.75;;;13.30;64.80;;;;;;5090029;28;20397;-71
2021/01/29 10:06:48;;;;;;;24.70;4.78;;;13.40;65.10;;;;;;5090187;28;20086;-70
2021/01/29 10:09:20;;;;;;;37.67;5.80;;;13.40;64.70;;;;;;5090568;28;20028;-73
2021/01/29 10:11:59;;;;;;;21.38;5.13;;;13.30;64.50;;;;;;5089662;28;20411;-71
2021/01/29 10:14:39;;;;;;;25.42;4.47;;;13.40;64.70;;;;;;5090152;28;20032;-72
2021/01/29 10:17:20;;;;;;;25.73;5.70;;;13.50;63.90;;;;;;5090796;28;20040;-72
2021/01/29 10:19:59;;;;;;;28.70;5.07;;;13.60;64.00;;;;;;5090665;28;20397;-72
2021/01/29 10:22:46;;;;;;;25.02;4.65;;;13.50;63.60;;;;;;5075852;28;20505;-71
2021/01/29 10:25:24;;;;;;;23.63;4.45;;;13.40;63.40;;;;;;5090258;28;20036;-71
2021/01/29 10:28:09;;;;;;;32.50;4.72;;;13.40;63.90;;;;;;5090563;28;20040;-71
2021/01/29 10:30:36;;;;;;;27.48;5.05;;;;;;;;;;5089331;28;20032;-71
2021/01/29 10:33:02;;;;;;;20.65;4.68;;;;;;;;;;5088706;28;20440;-73
2021/01/29 10:35:39;;;;;;;32.83;5.80;;;13.50;62.60;;;;;;5088470;28;20186;-71
2021/01/29 10:38:21;;;;;;;24.90;5.05;;;13.70;63.30;;;;;;5090612;28;20149;-73
2021/01/29 10:41:20;;;;;;;33.92;5.88;;;13.60;62.90;;;;;;5091600;28;20035;-71
2021/01/29 10:44:13;;;;;;;22.20;4.88;;;13.80;63.00;;;;;;5091805;28;20044;-72
2021/01/29 10:46:40;;;;;;;25.80;4.68;;;;;;;;;;5074229;28;20074;-70
2021/01/29 10:49:06;;;;;;;30.20;6.35;;;;;;;;;;5091850;28;20111;-71
2021/01/29 10:52:13;;;;;;;25.58;5.65;;;13.80;63.20;;;;;;5091924;28;20040;-71
2021/01/29 10:54:41;;;;;;;25.05;4.13;;;14.00;61.80;;;;;;5091621;28;20119;-73
2021/01/29 10:57:46;;;;;;;23.70;6.13;;;14.10;61.90;;;;;;5092079;28;20028;-70
2021/01/29 11:00:26;;;;;;;29.70;5.32;;;14.10;61.50;;;;;;5089693;28;20052;-70
2021/01/29 11:03:17;;;;;;;25.92;5.03;;;14.10;61.30;;;;;;5091838;28;20062;-73
2021/01/29 11:05:47;;;;;;;23.20;4.60;;;14.00;62.00;;;;;;5085344;28;20044;-72
2021/01/29 11:08:30;;;;;;;20.85;4.38;;;14.20;62.10;;;;;;5091545;28;20911;-71
2021/01/29 11:11:12;;;;;;;22.23;4.53;;;14.00;63.40;;;;;;5091233;28;20419;-71
2021/01/29 11:13:58;;;;;;;27.90;5.15;;;13.80;63.50;;;;;;5090997;28;20028;-73
2021/01/29 11:16:36;;;;;;;28.57;4.93;;;13.80;65.00;;;;;;5091692;28;20032;-73
2021/01/29 11:19:04;;;;;;;19.10;4.50;;;13.70;65.20;;;;;;5077746;28;20324;-73
2021/01/29 11:22:15;;;;;;;27.65;6.28;;;13.70;65.60;;;;;;5091076;28;20052;-72
2021/01/29 11:24:41;;;;;;;29.50;4.85;;;;;;;;;;5087907;28;20086;-76
2021/01/29 11:27:24;;;;;;;22.63;5.22;;;13.70;65.20;;;;;;5090702;28;20089;-74
2021/01/29 11:30:15;;;;;;;27.02;5.75;;;13.90;65.00;;;;;;5088643;28;20050;-74
2021/01/29 11:32:44;;;;;;;35.78;6.38;;;14.10;64.50;;;;;;5077458;28;20050;-76
2021/01/29 11:35:11;;;;;;;31.05;5.65;;;;;;;;;;5090720;28;20512;-75
2021/01/29 11:37:54;;;;;;;34.97;5.18;;;14.10;64.00;;;;;;5091137;28;20085;-74
2021/01/29 11:40:21;;;;;;;29.63;4.70;;;;;;;;;;5090911;28;20035;-73
2021/01/29 11:43:06;;;;;;;34.22;6.35;;;13.80;65.20;;;;;;5091272;28;20032;-75
2021/01/29 11:45:43;;;;;;;18.05;4.43;;;13.70;65.60;;;;;;5091203;28;20097;-75
2021/01/29 11:48:28;;;;;;;20.60;4.40;;;13.70;65.50;;;;;;5095274;28;20078;-75
2021/01/29 11:51:02;;;;;;;34.83;5.05;;;13.60;65.90;;;;;;5091496;28;20036;-75
2021/01/29 11:53:43;;;;;;;33.50;5.05;;;13.60;66.10;;;;;;5091236;28;20093;-74
2021/01/29 11:56:27;;;;;;;26.40;4.45;;;13.60;66.00;;;;;;5090451;28;20036;-74
2021/01/29 11:59:21;;;;;;;20.98;4.45;;;13.70;65.40;;;;;;5090783;28;20024;-75
2021/01/29 12:02:10;;;;;;;24.52;4.13;;;13.60;65.70;;;;;;5072819;28;20074;-75
2021/01/29 12:04:49;;;;;;;30.48;4.60;;;13.50;65.80;;;;;;5090894;28;20098;-72
2021/01/29 12:07:32;;;;;;;34.60;5.22;;;13.40;65.70;;;;;;5078774;28;20028;-73
2021/01/29 12:10:24;;;;;;;29.55;5.22;;;13.50;66.40;;;;;;5090930;28;20032;-73
2021/01/29 12:13:02;;;;;;;28.45;5.15;;;13.60;66.20;;;;;;5028581;28;20518;-72
2021/01/29 12:15:39;;;;;;;27.25;4.97;;;13.80;65.60;;;;;;5028572;28;20049;-73
2021/01/29 12:18:10;;;;;;;21.27;4.85;;;13.90;65.00;;;;;;5028167;28;20428;-73
2021/01/29 12:20:40;;;;;;;28.65;6.40;;;14.10;64.80;;;;;;5028843;28;20056;-75
2021/01/29 12:23:47;;;;;;;29.83;5.40;;;13.90;64.90;;;;;;5029023;28;20546;-75
2021/01/29 12:26:34;;;;;;;19.45;4.05;;;14.10;64.00;;;;;;5028004;28;20534;-75
2021/01/29 12:29:02;;;;;;;;;;;14.10;64.50;;;;;;5028951;28;20044;-70
2021/01/29 12:32:06;;;;;;;32.38;4.95;;;14.10;64.10;;;;;;5027949;28;19913;-75
2021/01/29 12:34:42;;;;;;;25.52;5.53;;;14.00;63.60;;;;;;5031657;28;20092;-74
2021/01/29 12:37:17;;;;;;;32.75;5.40;;;14.10;63.80;;;;;;5031856;28;20069;-72
2021/01/29 12:39:57;;;;;;;26.42;5.57;;;14.20;63.60;;;;;;5031973;28;20029;-72
2021/01/29 12:42:38;;;;;;;26.40;5.05;;;14.10;63.80;;;;;;5031890;28;20037;-71
2021/01/29 12:45:12;;;;;;;23.77;5.13;;;14.10;64.60;;;;;;5031812;28;20045;-74
2021/01/29 12:47:48;;;;;;;33.88;4.85;;;14.00;64.20;;;;;;5031551;28;20467;-74
2021/01/29 12:50:47;;;;;;;33.85;5.20;;;13.80;65.50;;;;;;5073625;28;20036;-74
2021/01/29 12:53:19;;;;;;;20.13;6.18;;;13.90;64.70;;;;;;5072571;28;20043;-73
2021/01/29 12:56:07;;;;;;;22.40;4.25;;;13.90;65.00;;;;;;5093605;28;20028;-75
2021/01/29 12:59:01;;;;;;;34.67;5.93;;;13.80;64.70;;;;;;5073190;28;20563;-75
2021/01/29 13:01:33;;;;;;;23.92;5.47;;;14.10;64.60;;;;;;5090865;28;20036;-73
2021/01/29 13:04:14;;;;;;;36.58;6.00;;;14.20;64.40;;;;;;5093852;28;20032;-74
2021/01/29 13:06:40;;;;;;;27.90;5.35;;;;;;;;;;5094217;28;20474;-73
2021/01/29 13:09:43;;;;;;;33.70;7.07;;;14.00;64.30;;;;;;5094243;28;20452;-75
2021/01/29 13:12:12;;;;;;;29.15;4.75;;;14.00;65.20;;;;;;5080225;28;20119;-71
2021/01/29 13:15:10;;;;;;;37.50;5.63;;;14.10;65.40;;;;;;5092790;28;20044;-73
2021/01/29 13:17:42;;;;;;;30.77;6.55;;;13.90;65.50;;;;;;5094018;28;20032;-75
2021/01/29 13:20:34;;;;;;;33.15;4.65;;;14.30;65.40;;;;;;5094086;28;20119;-73
2021/01/29 13:23:19;;;;;;;37.22;5.80;;;14.40;64.50;;;;;;5030703;28;20087;-72
2021/01/29 13:26:06;;;;;;;33.97;5.45;;;14.50;64.30;;;;;;5017253;28;20030;-74
2021/01/29 13:28:38;;;;;;;29.95;5.45;;;14.30;64.40;;;;;;5031090;28;20049;-75
2021/01/29 13:31:38;;;;;;;30.70;5.38;;;14.40;64.60;;;;;;5030891;28;20049;-73
2021/01/29 13:34:18;;;;;;;26.10;5.32;;;14.20;64.70;;;;;;5029744;28;20061;-74
2021/01/29 13:37:01;;;;;;;31.95;4.82;;;14.10;64.40;;;;;;5041476;28;20049;-72
2021/01/29 13:39:37;;;;;;;34.08;5.78;;;13.90;64.90;;;;;;5030173;28;20619;-73
2021/01/29 13:42:16;;;;;;;30.25;5.97;;;13.90;64.60;;;;;;5030895;28;20538;-72
2021/01/29 13:44:54;;;;;;;25.70;5.57;;;13.90;64.20;;;;;;5023017;28;20440;-72
2021/01/29 13:47:36;;;;;;;30.42;5.38;;;14.00;64.10;;;;;;5014228;28;20053;-73
2021/01/29 13:50:29;;;;;;;20.98;4.47;;;14.10;64.00;;;;;;5031391;28;20037;-73
2021/01/29 13:52:57;;;;;;;28.98;7.68;;;14.00;63.60;;;;;;5029901;28;20037;-73
2021/01/29 13:55:48;;;;;;;28.17;4.97;;;13.80;63.80;;;;;;5030643;28;20033;-73
2021/01/29 13:58:24;;;;;;;32.75;5.75;;;13.50;64.20;;;;;;5030321;28;20041;-74
2021/01/29 14:01:15;;;;;;;26.55;6.20;;;13.70;64.50;;;;;;5082994;28;20068;-74
2021/01/29 14:03:48;;;;;;;34.50;6.07;;;13.90;64.00;;;;;;5079491;28;20122;-73
2021/01/29 14:06:14;;;;;;;25.75;5.07;;;;;;;;;;5093245;28;20036;-74
2021/01/29 14:08:41;;;;;;;24.00;4.70;;;14.10;63.20;;;;;;5092871;28;20027;-74
2021/01/29 14:11:21;;;;;;;38.38;5.93;;;14.10;63.00;;;;;;5092778;28;20440;-74
2021/01/29 14:14:11;;;;;;;41.63;5.53;;;14.20;62.70;;;;;;5092689;28;20096;-74
2021/01/29 14:16:42;;;;;;;22.88;4.82;;;14.10;61.80;;;;;;5075168;28;20036;-74
2021/01/29 14:19:33;;;;;;;31.65;6.10;;;14.00;62.70;;;;;;5093393;28;20028;-75